Turbat Weather



Turbat's Current Weather

Temprature 15.15o clear sky

clear sky

Rain: 0 %

Min Temprature15.15o
Max Temprature15.15o
Humidity22
Wind Speed7.33 m/h
Sun Rise07:35:09
Sun Set18:23:49
Current Time: 23-Jan-2021 18:37:31
Lat/Lon: 26.0023, 63.044




Turbat's Geo Location



Turbat's Weather Forecast

Time Overall Temp Min Temp Max Temp Humidity Wind Speed Rain
23-Jan-2021 (Sat)
20:00:00 clear sky 17.200 13.910 17.200 20 6.21 m/h 0 %
23:00:00 clear sky 14.000 12.250 14.000 25 5.44 m/h 0 %
24-Jan-2021 (Sun)
02:00:00 clear sky 11.770 11.190 11.770 29 5.64 m/h 0 %
05:00:00 clear sky 10.480 10.400 10.480 30 5.69 m/h 0 %
08:00:00 clear sky 10.260 10.260 10.260 30 6.84 m/h 0 %
11:00:00 clear sky 18.970 18.970 18.970 17 11.66 m/h 0 %
14:00:00 clear sky 24.390 24.390 24.390 12 10.25 m/h 0 %
17:00:00 clear sky 23.150 23.150 23.150 14 9.18 m/h 0 %
20:00:00 clear sky 15.990 15.990 15.990 21 7.5 m/h 0 %
23:00:00 clear sky 13.510 13.510 13.510 26 6.48 m/h 0 %
25-Jan-2021 (Mon)
02:00:00 clear sky 12.980 12.980 12.980 28 6.86 m/h 0 %
05:00:00 clear sky 11.920 11.920 11.920 31 6.78 m/h 0 %
08:00:00 clear sky 11.380 11.380 11.380 33 7.38 m/h 0 %
11:00:00 clear sky 20.620 20.620 20.620 17 7.98 m/h 0 %
14:00:00 clear sky 25.430 25.430 25.430 12 5.22 m/h 0 %
17:00:00 clear sky 26.090 26.090 26.090 11 3.56 m/h 0 %
20:00:00 clear sky 16.110 16.110 16.110 24 3.45 m/h 0 %
23:00:00 clear sky 14.190 14.190 14.190 27 3.7 m/h 0 %
26-Jan-2021 (Tue)
02:00:00 clear sky 13.100 13.100 13.100 28 4.19 m/h 0 %
05:00:00 clear sky 12.570 12.570 12.570 28 5 m/h 0 %
08:00:00 clear sky 12.040 12.040 12.040 30 5.41 m/h 0 %
11:00:00 clear sky 21.890 21.890 21.890 16 7.25 m/h 0 %
14:00:00 clear sky 26.630 26.630 26.630 11 3.82 m/h 0 %
17:00:00 clear sky 26.750 26.750 26.750 10 2.63 m/h 0 %
20:00:00 clear sky 16.250 16.250 16.250 23 1.92 m/h 0 %
23:00:00 clear sky 13.820 13.820 13.820 29 2.19 m/h 0 %
27-Jan-2021 (Wed)
02:00:00 clear sky 13.750 13.750 13.750 27 3.85 m/h 0 %
05:00:00 clear sky 12.960 12.960 12.960 28 4.12 m/h 0 %
08:00:00 clear sky 12.850 12.850 12.850 28 5.16 m/h 0 %
11:00:00 clear sky 23.620 23.620 23.620 14 7.24 m/h 0 %
14:00:00 clear sky 27.040 27.040 27.040 11 4.18 m/h 0 %
17:00:00 clear sky 27.480 27.480 27.480 10 2.16 m/h 0 %
20:00:00 clear sky 15.530 15.530 15.530 34 2.43 m/h 0 %
23:00:00 clear sky 13.310 13.310 13.310 44 0.97 m/h 0 %
28-Jan-2021 (Thu)
02:00:00 clear sky 12.740 12.740 12.740 33 1.96 m/h 0 %
05:00:00 clear sky 12.080 12.080 12.080 29 2.91 m/h 0 %
08:00:00 clear sky 13.090 13.090 13.090 27 4.16 m/h 0 %
11:00:00 clear sky 23.200 23.200 23.200 14 4.15 m/h 0 %
14:00:00 clear sky 26.840 26.840 26.840 11 2.31 m/h 0 %
17:00:00 clear sky 27.050 27.050 27.050 12 4.23 m/h 0 %

Famous Cities (60)